Time;durP1;ratioP1;P1;durP2;ratioP2;P2;SDS_P1;SDS_P2;PMS_P1;PMS_P2;Temp;Humidity;BMP_temperature;BMP_pressure;BME280_temperature;BME280_humidity;BME280_pressure;Samples;Min_cycle;Max_cycle;Signal;HPM_P1;HPM_P2
2023/10/23 00:01:39;;;;;;;13.10;6.57;;;;;;;11.65;100.00;100285.44;5077980;28;20028;-90
2023/10/23 00:04:06;;;;;;;12.50;5.90;;;;;;;11.64;100.00;100277.34;5077753;28;20020;-89
2023/10/23 00:06:34;;;;;;;13.88;7.03;;;;;;;11.59;100.00;100273.13;5078390;28;20051;-89
2023/10/23 00:09:00;;;;;;;13.88;6.32;;;;;;;11.67;100.00;100282.06;5095739;28;20028;-89
2023/10/23 00:11:29;;;;;;;11.38;5.90;;;;;;;11.72;100.00;100287.88;5077551;28;20078;-89
2023/10/23 00:13:56;;;;;;;9.25;6.28;;;;;;;11.73;100.00;100288.66;5077900;28;20047;-90
2023/10/23 00:16:22;;;;;;;14.18;6.20;;;;;;;11.69;100.00;100285.22;5060293;28;20418;-89
2023/10/23 00:18:49;;;;;;;11.57;6.05;;;;;;;11.70;100.00;100287.59;5060320;28;20535;-90
2023/10/23 00:21:16;;;;;;;13.98;5.75;;;;;;;11.65;100.00;100274.00;5076568;28;20064;-87
2023/10/23 00:23:41;;;;;;;11.90;5.57;;;;;;;11.68;100.00;100280.78;5077384;28;20389;-88
2023/10/23 00:26:06;;;;;;;12.45;6.43;;;;;;;11.69;100.00;100277.44;5060744;28;20020;-84
2023/10/23 00:28:41;;;;;;;10.45;5.80;;;;;;;11.77;100.00;100281.44;5076485;28;20035;-85
2023/10/23 00:31:07;;;;;;;14.43;5.22;;;;;;;11.76;100.00;100279.09;5076576;28;20477;-86
2023/10/23 00:33:41;;;;;;;11.30;5.35;;;;;;;11.81;100.00;100276.25;5092875;28;20040;-84
2023/10/23 00:36:07;;;;;;;16.27;5.90;;;;;;;11.78;100.00;100271.56;5096638;28;20028;-84
2023/10/23 00:38:38;;;;;;;14.15;6.22;;;;;;;11.77;100.00;100264.25;5114650;28;20396;-86
2023/10/23 00:41:06;;;;;;;11.52;5.38;;;;;;;11.71;100.00;100265.50;5096224;28;20023;-83
2023/10/23 00:43:37;;;;;;;11.32;5.85;;;;;;;11.80;100.00;100277.56;5114089;28;20038;-85
2023/10/23 00:46:08;;;;;;;15.82;6.10;;;;;;;11.75;100.00;100269.72;5113761;28;20028;-84
2023/10/23 00:48:33;;;;;;;13.82;6.15;;;;;;;11.80;100.00;100276.78;5080267;28;20028;-84
2023/10/23 00:51:00;;;;;;;12.80;5.90;;;;;;;11.77;100.00;100269.97;5086802;28;20370;-85
2023/10/23 00:53:32;;;;;;;10.02;5.57;;;;;;;11.82;100.00;100282.78;5094465;28;20024;-84
2023/10/23 00:55:58;;;;;;;16.27;7.53;;;;;;;11.82;100.00;100283.56;5076793;28;20030;-84
2023/10/23 00:58:28;;;;;;;15.32;7.90;;;;;;;11.81;100.00;100270.53;5080026;28;20092;-85
2023/10/23 01:00:57;;;;;;;15.90;6.97;;;;;;;11.82;100.00;100274.97;5063433;28;20082;-82
2023/10/23 01:03:27;;;;;;;14.40;6.07;;;;;;;11.76;100.00;100256.94;5077664;28;20031;-85
2023/10/23 01:05:53;;;;;;;10.73;5.97;;;;;;;11.82;100.00;100269.25;5092968;28;20020;-85
2023/10/23 01:08:18;;;;;;;11.98;5.72;;;;;;;11.87;100.00;100264.88;5094279;28;20020;-88
2023/10/23 01:10:45;;;;;;;13.82;6.00;;;;;;;11.79;100.00;100253.09;5094133;28;20047;-88
2023/10/23 01:13:12;;;;;;;13.13;6.10;;;;;;;11.84;100.00;100263.03;5095125;28;20026;-88
2023/10/23 01:15:51;;;;;;;11.02;5.68;;;;;;;11.89;100.00;100259.44;5075249;28;20031;-87
2023/10/23 01:18:17;;;;;;;9.73;5.68;;;;;;;11.91;100.00;100264.69;5093297;28;20065;-89
2023/10/23 01:20:42;;;;;;;19.85;6.28;;;;;;;11.91;100.00;100262.59;5091808;28;20040;-89
2023/10/23 01:23:12;;;;;;;18.88;6.40;;;;;;;11.70;100.00;100227.50;5092737;28;20038;-87
2023/10/23 01:25:39;;;;;;;14.32;6.03;;;;;;;11.80;100.00;100239.56;5093889;28;20110;-90
2023/10/23 01:28:06;;;;;;;12.23;6.20;;;;;;;11.89;100.00;100253.72;5091973;28;20028;-87
2023/10/23 01:30:31;;;;;;;13.77;6.20;;;;;;;11.69;100.00;100225.13;5092438;28;20043;-87
2023/10/23 01:33:00;;;;;;;13.27;6.00;;;;;;;11.64;100.00;100218.03;5057360;28;20048;-87
2023/10/23 01:35:25;;;;;;;13.50;5.50;;;;;;;11.70;100.00;100232.41;5091769;28;20441;-89
2023/10/23 01:37:52;;;;;;;9.40;6.30;;;;;;;11.84;100.00;100263.03;5093248;28;20063;-89
2023/10/23 01:40:18;;;;;;;7.68;6.25;;;;;;;11.73;100.00;100260.03;5074943;28;20024;-87
2023/10/23 01:42:49;;;;;;;16.35;7.10;;;;;;;11.77;100.00;100246.28;5092131;28;20031;-87
2023/10/23 01:45:15;;;;;;;11.70;6.28;;;;;;;11.71;100.00;100236.88;5092910;28;20453;-87
2023/10/23 01:47:42;;;;;;;14.38;6.18;;;;;;;11.82;100.00;100254.94;5092260;28;20060;-88
2023/10/23 01:50:08;;;;;;;15.90;6.80;;;;;;;11.81;100.00;100261.94;5092612;28;20052;-86
2023/10/23 01:52:34;;;;;;;13.52;7.65;;;;;;;11.87;100.00;100258.38;5092986;28;20043;-87
2023/10/23 01:54:59;;;;;;;15.30;6.70;;;;;;;11.87;100.00;100259.16;5094424;28;20034;-87
2023/10/23 01:57:26;;;;;;;10.85;5.63;;;;;;;11.88;100.00;100263.59;5092813;28;20111;-87
2023/10/23 01:59:53;;;;;;;12.73;6.57;;;;;;;11.82;100.00;100254.94;5092870;28;20032;-88
2023/10/23 02:02:18;;;;;;;17.00;6.00;;;;;;;11.88;100.00;100260.72;5093952;28;20035;-88
2023/10/23 02:04:45;;;;;;;15.40;6.57;;;;;;;11.90;100.00;100268.84;5075682;28;20028;-87
2023/10/23 02:07:10;;;;;;;13.68;5.75;;;;;;;11.85;100.00;100264.63;5092984;28;20035;-88
2023/10/23 02:09:38;;;;;;;15.32;5.53;;;;;;;11.87;100.00;100262.03;5093525;28;20024;-86
2023/10/23 02:12:06;;;;;;;12.35;6.07;;;;;;;11.85;100.00;100261.75;5095256;28;20032;-88
2023/10/23 02:14:31;;;;;;;15.70;6.28;;;;;;;11.87;100.00;100269.81;5080127;28;20522;-88
2023/10/23 02:17:00;;;;;;;14.07;5.65;;;;;;;11.81;100.00;100261.94;5097836;28;20024;-87
2023/10/23 02:19:26;;;;;;;12.63;5.90;;;;;;;11.83;100.00;100258.59;5082220;28;20024;-88
2023/10/23 02:21:51;;;;;;;10.20;4.70;;;;;;;11.80;100.00;100254.66;5085348;28;20077;-89
2023/10/23 02:24:19;;;;;;;11.80;5.38;;;;;;;11.87;100.00;100266.94;5107888;28;20024;-88
2023/10/23 02:27:00;;;;;;;12.75;5.53;;;;;;;11.87;100.00;100269.81;5109731;28;20032;-88
2023/10/23 02:29:25;;;;;;;12.05;4.80;;;;;;;11.86;100.00;100266.19;5102793;28;20016;-88
2023/10/23 02:31:50;;;;;;;16.50;5.60;;;;;;;11.81;100.00;100264.06;5081279;28;20035;-88
2023/10/23 02:34:17;;;;;;;14.80;5.63;;;;;;;11.82;100.00;100271.31;5107689;28;20085;-88
2023/10/23 02:36:43;;;;;;;12.73;4.85;;;;;;;11.88;100.00;100280.00;5098276;28;20208;-88
2023/10/23 02:39:16;;;;;;;10.18;5.28;;;;;;;11.87;100.00;100284.94;5096738;28;20031;-88
2023/10/23 02:41:43;;;;;;;20.80;6.13;;;;;;;11.88;100.00;100291.44;5097433;28;20050;-88
2023/10/23 02:44:10;;;;;;;11.60;5.47;;;;;;;11.85;100.00;100287.53;5095741;28;20040;-88
2023/10/23 02:46:40;;;;;;;13.60;6.68;;;;;;;11.87;100.00;100292.72;5096935;28;20311;-87
2023/10/23 02:49:06;;;;;;;10.80;5.75;;;;;;;11.85;100.00;100296.09;5095877;28;20111;-88
2023/10/23 02:51:32;;;;;;;12.95;5.03;;;;;;;11.76;100.00;100285.56;5095434;28;20552;-88
2023/10/23 02:53:59;;;;;;;13.73;6.57;;;;;;;11.73;100.00;100283.72;5078456;28;20027;-87
2023/10/23 02:56:25;;;;;;;11.25;5.75;;;;;;;11.70;100.00;100283.94;5096877;28;20449;-87
2023/10/23 02:58:51;;;;;;;12.50;6.47;;;;;;;11.79;100.00;100303.84;5096730;28;20032;-87
2023/10/23 03:01:20;;;;;;;15.52;6.90;;;;;;;11.80;100.00;100309.06;5096458;28;20031;-87
2023/10/23 03:03:46;;;;;;;10.00;5.45;;;;;;;11.79;100.00;100303.84;5097109;28;20031;-87
2023/10/23 03:06:13;;;;;;;13.40;5.85;;;;;;;11.79;100.00;100313.22;5079428;28;20119;-86
2023/10/23 03:08:39;;;;;;;10.48;5.18;;;;;;;11.72;100.00;100310.78;5097803;28;20392;-87
2023/10/23 03:11:06;;;;;;;12.43;5.15;;;;;;;11.65;100.00;100298.97;5079468;28;20453;-87
2023/10/23 03:13:47;;;;;;;16.25;6.22;;;;;;;11.75;100.00;100317.59;5078286;28;20477;-89
2023/10/23 03:16:15;;;;;;;9.18;4.55;;;;;;;11.68;100.00;100312.28;5097324;28;20126;-88
2023/10/23 03:18:42;;;;;;;9.70;4.72;;;;;;;11.73;100.00;100334.47;5096556;28;20028;-88
2023/10/23 03:21:08;;;;;;;11.02;5.03;;;;;;;11.64;100.00;100315.34;5096002;28;20039;-87
2023/10/23 03:23:35;;;;;;;8.57;4.70;;;;;;;11.70;100.00;100332.59;5078240;28;20040;-87
2023/10/23 03:26:10;;;;;;;11.07;5.07;;;;;;;11.66;100.00;100324.25;5106001;28;20023;-86
2023/10/23 03:28:36;;;;;;;10.40;4.05;;;;;;;11.64;100.00;100328.88;5118725;28;20012;-87
2023/10/23 03:31:05;;;;;;;7.47;4.40;;;;;;;11.73;100.00;100334.47;5118380;28;20039;-85
2023/10/23 03:33:32;;;;;;;14.35;4.53;;;;;;;11.61;100.00;100321.31;5118876;28;20043;-86
2023/10/23 03:35:58;;;;;;;16.52;5.45;;;;;;;11.76;100.00;100339.97;5118430;28;20038;-87
2023/10/23 03:38:26;;;;;;;13.43;4.97;;;;;;;11.74;100.00;100345.41;5100610;28;20091;-89
2023/10/23 03:40:59;;;;;;;13.70;5.10;;;;;;;11.75;100.00;100340.50;5101485;28;20012;-86
2023/10/23 03:43:25;;;;;;;9.82;4.32;;;;;;;11.53;100.00;100303.75;5082888;28;20126;-88
2023/10/23 03:45:50;;;;;;;13.13;5.03;;;;;;;11.66;100.00;100324.25;5097521;28;20117;-87
2023/10/23 03:48:17;;;;;;;10.27;4.47;;;;;;;11.68;100.00;100333.09;5097701;28;20024;-87
2023/10/23 03:50:48;;;;;;;12.70;4.53;;;;;;;11.72;100.00;100342.25;5106269;28;20118;-88
2023/10/23 03:53:14;;;;;;;8.30;4.32;;;;;;;11.69;100.00;100333.88;5100982;28;20054;-87
2023/10/23 03:55:40;;;;;;;10.00;4.40;;;;;;;11.71;100.00;100351.38;5117134;28;20472;-89
2023/10/23 03:58:06;;;;;;;10.77;4.68;;;;;;;11.72;100.00;100347.19;5117629;28;20028;-88
2023/10/23 04:00:31;;;;;;;13.77;4.78;;;;;;;11.74;100.00;100347.50;5098074;28;20106;-87
2023/10/23 04:02:57;;;;;;;18.65;4.35;;;;;;;11.74;100.00;100336.84;5115173;28;20119;-88
2023/10/23 04:05:23;;;;;;;6.70;4.20;;;;;;;11.70;100.00;100321.94;5116410;28;20031;-86
2023/10/23 04:08:03;;;;;;;10.95;4.32;;;;;;;11.73;100.00;100329.53;5113127;28;20095;-87
2023/10/23 04:10:29;;;;;;;15.98;6.82;;;;;;;11.77;100.00;100338.69;5116127;28;20070;-87
2023/10/23 04:12:55;;;;;;;10.85;4.97;;;;;;;11.78;100.00;100333.75;5115301;28;20035;-88
2023/10/23 04:15:21;;;;;;;10.77;4.82;;;;;;;11.78;100.00;100337.41;5114951;28;20168;-87
2023/10/23 04:17:47;;;;;;;8.57;3.78;;;;;;;11.75;100.00;100324.09;5115762;28;20035;-88
2023/10/23 04:20:13;;;;;;;8.32;3.92;;;;;;;11.81;100.00;100333.53;5118714;28;20031;-85
2023/10/23 04:22:39;;;;;;;13.27;4.40;;;;;;;11.83;100.00;100333.81;5099989;28;20027;-87
2023/10/23 04:25:07;;;;;;;14.35;4.88;;;;;;;11.82;100.00;100328.59;5117593;28;20100;-87
2023/10/23 04:27:34;;;;;;;14.02;3.92;;;;;;;11.86;100.00;100336.97;5097345;28;20109;-88
2023/10/23 04:30:01;;;;;;;11.75;4.25;;;;;;;11.86;100.00;100342.72;5115445;28;20031;-88
2023/10/23 04:32:33;;;;;;;10.35;4.03;;;;;;;11.86;100.00;100332.06;5115772;28;20027;-88
2023/10/23 04:34:59;;;;;;;11.13;3.88;;;;;;;11.96;100.00;100341.28;5115542;28;20051;-88
2023/10/23 04:37:25;;;;;;;15.48;4.43;;;;;;;11.99;100.00;100343.13;5097080;28;20500;-88
2023/10/23 04:39:51;;;;;;;15.10;4.38;;;;;;;11.93;100.00;100325.09;5097008;28;20015;-88
2023/10/23 04:42:17;;;;;;;11.45;4.03;;;;;;;12.04;100.00;100333.81;5115725;28;20032;-87
2023/10/23 04:44:42;;;;;;;10.63;4.13;;;;;;;12.00;100.00;100334.03;5119168;28;20039;-86
2023/10/23 04:47:07;;;;;;;7.63;3.58;;;;;;;12.07;100.00;100344.25;5119615;28;20480;-86
2023/10/23 04:49:34;;;;;;;7.43;4.15;;;;;;;12.09;100.00;100353.16;5117738;28;20388;-85
2023/10/23 04:52:00;;;;;;;7.85;4.15;;;;;;;12.06;100.00;100348.44;5116132;28;20048;-86
2023/10/23 04:54:25;;;;;;;12.45;5.47;;;;;;;12.07;100.00;100341.41;5119821;28;20114;-85
2023/10/23 04:56:52;;;;;;;14.88;4.50;;;;;;;12.06;100.00;100352.06;5118482;28;20501;-85
2023/10/23 04:59:18;;;;;;;9.63;4.60;;;;;;;11.96;100.00;100338.41;5115892;28;20438;-84
2023/10/23 05:01:44;;;;;;;11.05;4.60;;;;;;;12.01;100.00;100346.28;5114322;28;20047;-85
2023/10/23 05:04:10;;;;;;;7.00;3.50;;;;;;;12.07;100.00;100364.31;5115138;28;20020;-84
2023/10/23 05:06:36;;;;;;;9.45;4.57;;;;;;;12.08;100.00;100366.69;5114194;28;20032;-83
2023/10/23 05:09:04;;;;;;;10.52;4.65;;;;;;;12.07;100.00;100367.16;5097077;28;20433;-86
2023/10/23 05:11:38;;;;;;;8.40;4.22;;;;;;;12.10;100.00;100372.72;5096865;28;20077;-85
2023/10/23 05:14:05;;;;;;;9.48;4.60;;;;;;;12.11;100.00;100365.66;5096418;28;20656;-83
2023/10/23 05:16:30;;;;;;;7.68;3.97;;;;;;;12.09;100.00;100382.59;5113950;28;20535;-85
2023/10/23 05:18:56;;;;;;;10.13;4.22;;;;;;;12.08;100.00;100383.88;5113577;28;20051;-79
2023/10/23 05:21:21;;;;;;;8.57;4.22;;;;;;;12.05;100.00;100384.88;5113195;28;20054;-78
2023/10/23 05:23:47;;;;;;;16.60;5.00;;;;;;;12.11;100.00;100390.69;5112628;28;20036;-83
2023/10/23 05:26:14;;;;;;;8.77;4.13;;;;;;;12.12;100.00;100384.44;5113042;28;20032;-84
2023/10/23 05:28:40;;;;;;;14.18;4.88;;;;;;;12.15;100.00;100382.66;5113662;28;20107;-83
2023/10/23 05:31:06;;;;;;;10.20;4.45;;;;;;;12.16;100.00;100396.47;5076211;28;20074;-82
2023/10/23 05:33:33;;;;;;;12.77;5.03;;;;;;;12.14;100.00;100399.06;5119197;28;20047;-81
2023/10/23 05:36:05;;;;;;;15.35;4.93;;;;;;;12.14;100.00;100390.47;5125291;28;20031;-81
2023/10/23 05:38:33;;;;;;;10.35;5.28;;;;;;;12.15;100.00;100402.72;5097306;28;20027;-81
2023/10/23 05:41:00;;;;;;;11.55;5.28;;;;;;;12.15;100.00;100399.84;5096063;28;20058;-83
2023/10/23 05:43:27;;;;;;;9.30;4.43;;;;;;;12.14;100.00;100396.19;5095234;28;20054;-83
2023/10/23 05:45:55;;;;;;;13.32;5.85;;;;;;;12.15;100.00;100406.38;5095179;28;20035;-84
2023/10/23 05:48:21;;;;;;;7.20;4.25;;;;;;;12.16;100.00;100399.31;5098254;28;20088;-82
2023/10/23 05:51:03;;;;;;;10.20;4.70;;;;;;;12.19;100.00;100409.00;5114340;28;20110;-80
2023/10/23 05:53:29;;;;;;;16.60;5.75;;;;;;;12.16;100.00;100398.53;5116982;28;20028;-78
2023/10/23 05:56:05;;;;;;;14.80;5.50;;;;;;;12.14;100.00;100396.19;5098593;28;20043;-80
2023/10/23 05:58:32;;;;;;;11.07;5.78;;;;;;;12.26;100.00;100417.16;5099440;28;20031;-78
2023/10/23 06:01:07;;;;;;;8.20;4.65;;;;;;;12.26;100.00;100414.28;5116812;28;20388;-79
2023/10/23 06:03:40;;;;;;;9.00;5.00;;;;;;;12.33;100.00;100419.59;5082150;28;20036;-80
2023/10/23 06:06:06;;;;;;;8.23;4.50;;;;;;;12.35;100.00;100416.25;5116888;28;20525;-80
2023/10/23 06:08:32;;;;;;;9.10;4.97;;;;;;;12.38;100.00;100423.84;5098286;28;20112;-79
2023/10/23 06:10:59;;;;;;;14.50;4.72;;;;;;;12.34;100.00;100421.19;5116506;28;20027;-82
2023/10/23 06:13:25;;;;;;;14.23;4.90;;;;;;;12.43;100.00;100428.84;5113340;28;20030;-81
2023/10/23 06:15:51;;;;;;;10.93;5.20;;;;;;;12.47;100.00;100429.41;5113121;27;20028;-81
2023/10/23 06:18:17;;;;;;;11.30;4.38;;;;;;;12.46;100.00;100422.91;5078857;28;20044;-84
2023/10/23 06:20:44;;;;;;;11.45;4.50;;;;;;;12.47;100.00;100424.47;5115691;27;20066;-82
2023/10/23 06:23:13;;;;;;;6.63;4.40;;;;;;;12.51;100.00;100425.03;5102788;28;20031;-83
2023/10/23 06:25:39;;;;;;;11.82;4.88;;;;;;;12.54;100.00;100426.13;5082519;28;20429;-81
2023/10/23 06:28:06;;;;;;;9.88;5.15;;;;;;;12.56;100.00;100426.41;5096524;28;20050;-82
2023/10/23 06:30:34;;;;;;;12.70;5.22;;;;;;;12.61;100.00;100428.53;5107290;28;20053;-81
2023/10/23 06:33:00;;;;;;;11.75;4.65;;;;;;;12.67;100.00;100435.91;5115626;28;20031;-79
2023/10/23 06:35:33;;;;;;;7.38;4.63;;;;;;;12.74;100.00;100436.78;5111977;28;20027;-80
2023/10/23 06:38:04;;;;;;;12.13;4.72;;;;;;;12.85;100.00;100448.38;5109618;28;20034;-79
2023/10/23 06:40:35;;;;;;;11.88;4.82;;;;;;;12.92;100.00;100442.19;5096918;28;20080;-78
2023/10/23 06:43:02;;;;;;;12.18;4.90;;;;;;;13.01;100.00;100439.13;5114011;28;20031;-81
2023/10/23 06:45:28;;;;;;;10.18;4.97;;;;;;;13.10;100.00;100436.09;5115664;28;20035;-80
2023/10/23 06:47:58;;;;;;;10.57;5.10;;;;;;;13.20;100.00;100446.09;5115778;27;20379;-80
2023/10/23 06:50:23;;;;;;;9.48;4.82;;;;;;;13.33;100.00;100443.63;5095350;28;20092;-80
2023/10/23 06:52:50;;;;;;;9.68;4.95;;;;;;;13.43;100.00;100436.41;5115811;27;20027;-79
2023/10/23 06:55:19;;;;;;;11.73;4.32;;;;;;;13.55;100.00;100434.41;5115719;28;20031;-79
2023/10/23 06:57:44;;;;;;;12.32;4.60;;;;;;;13.65;100.00;100446.50;5115282;28;20036;-79
2023/10/23 07:00:12;;;;;;;11.18;5.05;;;;;;;13.69;100.00;100444.94;5114237;28;20030;-80
2023/10/23 07:02:38;;;;;;;9.88;3.95;;;;;;;13.72;100.00;100440.28;5115346;28;20028;-78
2023/10/23 07:05:19;;;;;;;9.43;4.22;;;;;;;13.72;100.00;100443.16;5098953;28;20031;-82
2023/10/23 07:07:44;;;;;;;11.30;4.43;;;;;;;13.67;100.00;100436.06;5120630;28;20198;-82
2023/10/23 07:10:11;;;;;;;14.18;5.55;;;;;;;13.69;100.00;100438.44;5123377;28;20035;-81
2023/10/23 07:12:36;;;;;;;12.07;4.53;;;;;;;13.71;100.00;100439.50;5121402;27;20023;-81
2023/10/23 07:15:08;;;;;;;8.48;3.97;;;;;;;13.76;100.00;100447.38;5135339;28;20027;-79
2023/10/23 07:17:34;;;;;;;7.70;3.83;;;;;;;13.80;100.00;100455.75;5137450;27;20059;-78
2023/10/23 07:20:00;;;;;;;13.05;4.28;;;;;;;13.83;100.00;100457.59;5133453;28;20047;-78
2023/10/23 07:22:26;;;;;;;12.07;4.88;;;;;;;13.86;100.00;100445.88;5088715;28;20483;-80
2023/10/23 07:25:00;;;;;;;10.82;4.30;;;;;;;13.90;100.00;100451.38;5121185;28;20036;-81
2023/10/23 07:27:26;;;;;;;7.97;3.72;;;;;;;13.94;100.00;100449.81;5125444;28;20031;-79
2023/10/23 07:29:52;;;;;;;12.70;3.88;;;;;;;14.03;100.00;100448.06;5109951;28;20031;-78
2023/10/23 07:32:18;;;;;;;10.68;5.10;;;;;;;14.14;100.00;100453.84;5102389;28;20059;-80
2023/10/23 07:34:45;;;;;;;9.75;4.72;;;;;;;14.21;100.00;100451.28;5116582;28;20055;-81
2023/10/23 07:37:17;;;;;;;12.45;4.13;;;;;;;14.47;100.00;100447.50;5115308;28;20038;-83
2023/10/23 07:39:47;;;;;;;10.63;4.00;;;;;;;14.67;100.00;100448.13;5084005;28;20067;-80
2023/10/23 07:42:14;;;;;;;12.40;4.25;;;;;;;14.80;100.00;100444.75;5096710;28;20073;-82
2023/10/23 07:44:40;;;;;;;10.70;4.40;;;;;;;14.90;100.00;100443.22;5078323;28;20032;-82
2023/10/23 07:47:05;;;;;;;6.90;4.13;;;;;;;14.97;100.00;100445.56;5076327;28;20026;-79
2023/10/23 07:49:31;;;;;;;9.82;3.95;;;;;;;15.23;100.00;100445.34;5092449;28;20523;-80
2023/10/23 07:51:57;;;;;;;10.23;4.45;;;;;;;15.49;100.00;100445.09;5091025;28;20461;-80
2023/10/23 07:54:22;;;;;;;11.27;4.38;;;;;;;15.76;100.00;100444.31;5093656;28;20111;-79
2023/10/23 07:56:48;;;;;;;10.00;4.78;;;;;;;15.96;100.00;100446.09;5094190;28;20024;-79
2023/10/23 07:59:14;;;;;;;9.70;4.68;;;;;;;16.16;100.00;100445.00;5094398;28;20470;-79
2023/10/23 08:01:39;;;;;;;10.25;4.28;;;;;;;16.26;100.00;100443.41;5094282;28;20492;-79
2023/10/23 08:04:05;;;;;;;12.13;4.55;;;;;;;16.67;100.00;100449.31;5094082;28;20020;-80
2023/10/23 08:06:31;;;;;;;7.18;4.80;;;;;;;17.03;100.00;100450.94;5089294;28;20546;-79
2023/10/23 08:08:57;;;;;;;10.00;4.88;;;;;;;17.29;100.00;100454.16;5094339;28;20032;-79
2023/10/23 08:11:22;;;;;;;12.35;4.00;;;;;;;17.47;100.00;100454.84;5092784;28;20373;-78
2023/10/23 08:13:49;;;;;;;11.25;4.65;;;;;;;17.59;100.00;100445.53;5093455;28;20035;-79
2023/10/23 08:16:14;;;;;;;8.13;3.92;;;;;;;17.70;100.00;100450.44;5094070;28;20115;-78
2023/10/23 08:18:41;;;;;;;10.43;4.20;;;;;;;17.83;100.00;100448.47;5094150;28;20103;-78
2023/10/23 08:21:14;;;;;;;7.78;3.63;;;;;;;17.98;100.00;100450.94;5075707;28;20032;-81
2023/10/23 08:23:41;;;;;;;10.35;3.83;;;;;;;18.06;100.00;100446.13;5058610;28;20030;-81
2023/10/23 08:26:07;;;;;;;11.65;4.47;;;;;;;18.24;100.00;100448.28;5085569;27;20051;-81
2023/10/23 08:28:34;;;;;;;5.85;3.50;;;;;;;18.40;100.00;100446.56;5102872;28;20448;-78
2023/10/23 08:31:00;;;;;;;10.65;3.33;;;;;;;18.58;100.00;100448.69;5070200;28;20443;-80
2023/10/23 08:33:26;;;;;;;12.02;3.58;;;;;;;18.70;100.00;100443.56;5117963;27;20031;-78
2023/10/23 08:35:56;;;;;;;8.38;3.75;;;;;;;18.73;100.00;100435.88;5107282;27;20368;-80
2023/10/23 08:38:21;;;;;;;15.65;5.15;;;;;;;18.77;100.00;100437.13;5121062;27;20483;-80
2023/10/23 08:40:51;;;;;;;6.15;3.60;;;;;;;18.82;100.00;100433.38;5121058;27;20042;-79
2023/10/23 08:43:17;;;;;;;8.32;4.55;;;;;;;18.83;100.00;100432.03;5113019;28;20035;-79
2023/10/23 08:45:43;;;;;;;13.25;3.63;;;;;;;18.80;100.00;100432.38;5094585;28;20035;-80
2023/10/23 08:48:09;;;;;;;6.22;3.70;;;;;;;18.79;100.00;100425.00;5094715;28;20102;-79
2023/10/23 08:50:37;;;;;;;9.30;3.67;;;;;;;18.68;100.00;100426.72;5111613;28;20069;-78
2023/10/23 08:53:07;;;;;;;11.95;4.25;;;;;;;18.69;100.00;100431.19;5094946;28;20028;-81
2023/10/23 08:55:34;;;;;;;7.97;3.72;;;;;;;18.77;100.00;100425.53;5094438;28;20100;-77
2023/10/23 08:57:59;;;;;;;7.40;3.17;;;;;;;18.90;100.00;100424.84;5089111;28;20051;-79
2023/10/23 09:00:25;;;;;;;8.57;3.20;;;;;;;19.04;100.00;100417.78;5074084;28;20413;-76
2023/10/23 09:02:51;;;;;;;8.65;3.25;;;;;;;19.18;100.00;100419.44;5091760;28;20031;-78
2023/10/23 09:05:17;;;;;;;11.18;3.17;;;;;;;19.26;100.00;100422.50;5073192;28;20067;-81
2023/10/23 09:07:44;;;;;;;9.07;3.60;;;;;;;19.31;100.00;100413.72;5092252;28;20043;-78
2023/10/23 09:10:09;;;;;;;11.48;3.00;;;;;;;19.33;100.00;100418.94;5056051;28;20431;-78
2023/10/23 09:12:36;;;;;;;7.95;3.55;;;;;;;19.34;100.00;100423.41;5092617;28;20115;-77
2023/10/23 09:15:23;;;;;;;15.85;3.28;;;;;;;19.24;100.00;100417.25;5073269;28;20082;-81
2023/10/23 09:17:52;;;;;;;7.93;2.47;;;;;;;19.12;100.00;100419.50;5091763;28;20112;-79
2023/10/23 09:20:26;;;;;;;12.23;3.20;;;;;;;19.02;100.00;100414.66;5052555;28;20397;-80
2023/10/23 09:22:52;;;;;;;6.43;2.83;;;;;;;18.98;100.00;100412.06;5110409;27;20066;-81
2023/10/23 09:25:23;;;;;;;5.63;2.78;;;;;;;18.98;100.00;100411.28;5116865;27;20112;-78
2023/10/23 09:27:49;;;;;;;7.50;2.53;;;;;;;19.00;100.00;100414.44;5116805;27;20039;-81
2023/10/23 09:30:21;;;;;;;7.13;2.17;;;;;;;18.99;100.00;100412.88;5116942;27;20092;-81
2023/10/23 09:32:51;;;;;;;9.45;3.72;;;;;;;19.00;100.00;100417.34;5116851;27;20478;-78
2023/10/23 09:35:17;;;;;;;6.20;2.20;;;;;;;19.00;100.00;100411.53;5117554;27;20039;-79
2023/10/23 09:37:43;;;;;;;7.53;1.77;;;;;;;19.02;100.00;100412.53;5116961;28;20032;-79
2023/10/23 09:40:11;;;;;;;8.70;2.45;;;;;;;19.05;100.00;100408.56;5116996;28;20452;-80
2023/10/23 09:42:36;;;;;;;11.07;2.58;;;;;;;19.11;100.00;100412.16;5119565;28;20035;-77
2023/10/23 09:45:04;;;;;;;7.53;1.73;;;;;;;19.21;100.00;100408.88;5118003;28;20035;-81
2023/10/23 09:47:31;;;;;;;3.17;1.88;;;;;;;19.32;100.00;100399.97;5117232;28;20433;-79
2023/10/23 09:49:58;;;;;;;7.82;2.20;;;;;;;19.39;100.00;100402.25;5097612;28;20028;-78
2023/10/23 09:52:25;;;;;;;6.20;2.72;;;;;;;19.47;100.00;100403.94;5116618;28;20047;-80
2023/10/23 09:54:59;;;;;;;6.75;1.90;;;;;;;19.57;100.00;100409.31;5115764;28;20398;-78
2023/10/23 09:57:33;;;;;;;5.45;1.80;;;;;;;19.61;100.00;100401.09;5116434;28;20024;-79
2023/10/23 10:00:16;;;;;;;2.25;1.48;;;;;;;19.69;100.00;100402.00;5081048;28;20070;-80
2023/10/23 10:02:57;;;;;;;11.75;1.60;;;;;;;19.80;100.00;100402.56;5116289;28;20491;-78
2023/10/23 10:05:42;;;;;;;9.38;2.17;;;;;;;19.91;100.00;100398.66;5099010;28;20096;-81
2023/10/23 10:08:08;;;;;;;5.38;1.73;;;;;;;20.01;100.00;100394.00;5097773;28;20066;-79
2023/10/23 10:10:39;;;;;;;7.50;1.85;;;;;;;19.96;100.00;100392.78;5097858;28;20042;-81
2023/10/23 10:13:04;;;;;;;10.20;1.80;;;;;;;19.90;100.00;100394.22;5098162;28;20024;-80
2023/10/23 10:15:31;;;;;;;7.28;1.60;;;;;;;19.74;100.00;100393.19;5097651;28;20392;-81
2023/10/23 10:17:56;;;;;;;4.65;1.35;;;;;;;19.57;100.00;100386.13;5115716;28;20367;-79
2023/10/23 10:20:22;;;;;;;8.23;1.50;;;;;;;19.43;100.00;100383.19;5116311;28;20032;-83
2023/10/23 10:23:11;;;;;;;4.88;1.60;;;;;;;19.31;100.00;100376.03;5098577;28;20465;-81
2023/10/23 10:25:41;;;;;;;11.20;1.80;;;;;;;19.22;100.00;100376.44;5096965;28;20039;-81
2023/10/23 10:28:08;;;;;;;8.05;2.17;;;;;;;19.18;100.00;100378.09;5098341;28;20023;-79
2023/10/23 10:30:46;;;;;;;7.00;1.55;;;;;;;19.23;100.00;100371.44;5116183;28;20039;-78
2023/10/23 10:33:21;;;;;;;6.50;1.90;;;;;;;19.27;100.00;100387.16;5096084;28;20503;-78
2023/10/23 10:35:52;;;;;;;5.45;1.33;;;;;;;19.30;100.00;100380.28;5096575;28;20031;-83
2023/10/23 10:38:25;;;;;;;4.65;1.52;;;;;;;19.23;100.00;100371.44;5114259;28;20530;-79
2023/10/23 10:40:57;;;;;;;7.25;1.58;;;;;;;19.08;100.00;100366.09;5114327;28;20028;-82
2023/10/23 10:43:30;;;;;;;4.57;1.67;;;;;;;18.97;100.00;100369.97;5118114;28;20039;-79
2023/10/23 10:45:55;;;;;;;9.98;2.05;;;;;;;18.79;100.00;100367.09;5095801;28;20118;-82
2023/10/23 10:48:27;;;;;;;6.82;1.75;;;;;;;18.67;100.00;100363.59;5095736;28;20100;-82
2023/10/23 10:50:54;;;;;;;9.02;2.85;;;;;;;18.54;100.00;100375.09;5115715;28;20043;-81
2023/10/23 10:53:23;;;;;;;7.07;1.77;;;;;;;18.36;100.00;100364.28;5116080;28;20100;-79
2023/10/23 10:55:48;;;;;;;7.55;2.17;;;;;;;18.23;100.00;100362.81;5115805;28;20102;-80
2023/10/23 10:58:14;;;;;;;6.93;1.80;;;;;;;18.12;100.00;100359.31;5116083;28;20110;-82
2023/10/23 11:00:40;;;;;;;6.63;1.92;;;;;;;18.05;100.00;100354.91;5115630;28;20023;-81
2023/10/23 11:03:06;;;;;;;9.15;1.83;;;;;;;17.96;100.00;100346.63;5115732;28;20028;-81
2023/10/23 11:05:32;;;;;;;5.68;1.73;;;;;;;17.93;100.00;100356.34;5080681;28;20030;-83
2023/10/23 11:07:58;;;;;;;3.75;1.77;;;;;;;17.92;100.00;100351.94;5116120;28;20095;-81
2023/10/23 11:10:23;;;;;;;6.18;1.45;;;;;;;17.96;100.00;100360.28;5097467;28;20019;-80
2023/10/23 11:12:50;;;;;;;9.35;1.58;;;;;;;18.08;100.00;100359.59;5097422;28;20024;-81
2023/10/23 11:15:16;;;;;;;3.72;1.40;;;;;;;18.20;100.00;100363.16;5115828;28;20035;-80